Scottsville, Vermont
Current Conditions -  °F | °C
As of 10:15 AM on Wednesday 26 Nov 2014 (Local Time) from KRUT Reporting Station
Overcast Overcast  
Wind Chill: 34°   Ceiling: 9000
Heat Index: 34°   Visibility: 10mi
Dew Point: 25°   Wind: 3mph
Humidity: 70%   Direction: 320°NW
Pressure: 30.16"   Gusts: NA
Location:  43.3492°N, 72.9643°W
Report Text: KRUT 261515Z 32003KT 10SM OVC090 01/M04 A3016 RMK AO1
Loading
Personal Weather Stations






























Interactive Weather Map New forecast layout! Learn more

10-Day Weather Forecast

Advertisements
Track Severe Weather on mobile